Main page
METAR-TAF:

METAR-TAF

Airports :

Avignon – Provence Airport

Avignon, France

latitude: 43-54-26N, longitude: 004-54-07E, elevation: 38 m

Current weather observation

The report was made 27 minutes ago, at 05:30 UTC
Wind 2 kt from variable directions
Temperature 22°C
Humidity 88%
Pressure 1011 hPa
Visibility 10 km or more
no clouds below 1500 m and no cumulonimbus

METAR: LFMV 130530Z AUTO VRB02KT CAVOK 22/20 Q1011 NOSIG

Time: 07:57 (05:57 UTC)

Forecast

The report was made 3 hours and 57 minutes ago, at 02:00 UTC
Forecast valid from 13 at 03 UTC to 14 at 03 UTC
Wind 5 kt from the Northeast
Visibility 10 km or more
no clouds below 1500 m and no cumulonimbus
Becoming
from 13 at 10 UTC to 13 at 12 UTC
Wind 15 kt from the South
Becoming
from 13 at 22 UTC to 13 at 24 UTC
Wind 4 kt from variable directions

TAF: LFMV 130200Z 1303/1403 05005KT CAVOK BECMG 1310/1312 17015KT BECMG 1322/1324 VRB04KT

Weather observations and forecasts of more than 4000 airports (METAR and TAF reports).

The available stations are represented by yellow and red dots on the map.

Hover mouse over dot to see the name of the station.

Then click to see weather observations and forecasts.

To change the map : click on the green buttons with a black cross to zoom in, on the green button with a dash to zoom out, or on the green arrows for adjacent maps.


METAR-TAF: